Startpagina
METAR-TAF:

METAR-TAF

Vliegvelden :

Al-Bateen Airport

Abu Dhabi Bateen, Verenigde Arabische Emiraten

breedte: 24-26N, lengte: 054-28E, hoogte: 5 m

Actueel weer

Dit bericht is 54 minuten geleden gemaakt, om 23:00 UTC
Wind 2 kt uit variabele richting
Temperatuur 23°C
Vochtigheid 78%
Druk 1015 hPa
Zicht: 7000 m

METAR: OMAD 232300Z VRB02KT 7000 NSC 23/19 Q1015 NSIG

Tijdstip: 03:54 (23:54 UTC)

Verwachting

Dit bericht is 54 minuten geleden gemaakt, om 23:00 UTC
Verwachting geldig van 24 om 00 UTC tot 25 om 06 UTC
Wind 5 kt uit het noordoosten
Zicht: 8000 m
Kans 30%
van 24 om 00 UTC tot 24 om 04 UTC
Zicht: 4000 m
Heiigheid
Wijzigt naar
van 24 om 10 UTC tot 24 om 12 UTC
Wind 7 kt uit het noorden
Wijzigt naar
van 24 om 16 UTC tot 24 om 18 UTC
Wind 5 kt uit het noordoosten

TAF: OMAD 232300Z 2400/2506 04005KT 8000 NSC PROB30 2400/2404 4000 HZ BECMG 2410/2412 35007KT BECMG 2416/2418 05005KT

Waarnemingen en weersverwachtingen van meer dan 4000 vliegvelden (METAR en TAF).

De beschikbare stations zijn de gele en rode punten op de kaart.

Ga met uw muis naar het station om de naam te zien.

Klik dan om waarnemingen en weersverwachtingen te zien.

kaart wijzigen: klik op de groene knoppen met een zwart kruis om in te zoomen, op de groene knop met een streepje om uit te zoomen of op de groene pijlen voor aangrenzende kaarten.


METAR-TAF: